Список аэропортов
Фактическая погода:

21 апреля, 19:00
Температура: +19°C (+19.0*)
Ветер: восточный 2 м/с
Давление: *764 мм
Без существ. явл.
Время (МСК)Темп. СВетерВлажностьДавлениеОблачностьОсадки
15:00+19СВ, 3 м/с29%1022 гПаясно
16:00+19СВ, 2 м/с27%1021 гПаясно
17:00+19СВ, 2 м/с26%1020 гПаясно
18:00+19СВ, 2 м/с25%1020 гПаясно
19:00+19СВ, 2 м/с25%1019 гПаясно
20:00+18СВ, 2 м/с25%1019 гПаясно
21:00+16СВ, 2 м/с34%1019 гПаясно
22:00+13СВ, 1 м/с42%1019 гПаясно
23:00+12Штиль 47%1020 гПаясно
22 апреля
00:00+10Штиль 50%1020 гПаясно
01:00+11С, 3 м/с52%1020 гПаясно
02:00+10СВ, 3 м/с66%1020 гПаясно
03:00+8СВ, 2 м/с75%1019 гПаясно
04:00+7С, 2 м/с81%1019 гПаясно
05:00+7СЗ, 2 м/с84%1019 гПаясно
06:00+6СЗ, 2 м/с87%1019 гПаясно
07:00+6СЗ, 2 м/с89%1019 гПаясно
08:00+6С, 1 м/с84%1019 гПаясно
09:00+9СВ, 3 м/с68%1018 гПаясно
10:00+11В, 2 м/с56%1018 гПаясно
11:00+14СВ, 3 м/с47%1017 гПаясно
12:00+15СВ, 5 м/с41%1017 гПаясно
13:00+16СВ, 6 м/с35%1016 гПаясно
14:00+16СВ, 7 м/с33%1016 гПаясно
15:00+17СВ, 8 м/с28%1016 гПаясно
16:00+17В, 9 м/с31%1015 гПаясно
17:00+16В, 9 м/с34%1015 гПамалооблачно
18:00+16В, 9 м/с33%1015 гПаясно
19:00+16В, 9 м/с33%1015 гПаясно
20:00+15В, 9 м/с34%1015 гПаясно
21:00+14В, 6 м/с35%1016 гПаясно
22:00+13СВ, 5 м/с40%1016 гПаясно
23:00+12СВ, 5 м/с46%1016 гПаясно
23 апреля
00:00+12В, 6 м/с51%1016 гПаясно
01:00+12В, 7 м/с56%1016 гПаясно
02:00+11В, 7 м/с60%1015 гПаясно
03:00+10В, 6 м/с58%1015 гПаясно
04:00+9В, 5 м/с58%1015 гПаясно
05:00+8В, 5 м/с60%1015 гПаясно
06:00+7В, 5 м/с62%1014 гПаясно
07:00+7В, 5 м/с63%1014 гПаясно
08:00+7В, 6 м/с64%1014 гПаясно
09:00+8В, 6 м/с62%1013 гПаясно
10:00+10В, 6 м/с61%1013 гПаясно
11:00+13В, 7 м/с56%1012 гПаясно
12:00+15В, 8 м/с48%1012 гПас прояснениями
13:00+17В, 9 м/с41%1011 гПас прояснениямисл. дождь
14:00+16В, 9 м/с47%1011 гПаоблачнодождь
15:00+17В, 9 м/с50%1010 гПаоблачно